sensor_id;sensor_type;location;lat;lon;timestamp;P1;durP1;ratioP1;P2;durP2;ratioP2
50393;SDS011;36308;46.312;25.288;2022-12-01T00:01:16;13.68;;;7.28;;
50393;SDS011;36308;46.312;25.288;2022-12-01T00:03:42;11.82;;;7.07;;
50393;SDS011;36308;46.312;25.288;2022-12-01T00:06:11;14.32;;;6.32;;
50393;SDS011;36308;46.312;25.288;2022-12-01T00:08:42;10.73;;;6.03;;
50393;SDS011;36308;46.312;25.288;2022-12-01T00:11:28;12.75;;;6.30;;
50393;SDS011;36308;46.312;25.288;2022-12-01T00:13:54;13.80;;;6.63;;
50393;SDS011;36308;46.312;25.288;2022-12-01T00:16:19;11.57;;;5.90;;
50393;SDS011;36308;46.312;25.288;2022-12-01T00:18:48;11.57;;;6.55;;
50393;SDS011;36308;46.312;25.288;2022-12-01T00:21:15;11.68;;;7.20;;
50393;SDS011;36308;46.312;25.288;2022-12-01T00:23:44;15.27;;;8.27;;
50393;SDS011;36308;46.312;25.288;2022-12-01T00:26:11;24.35;;;8.48;;
50393;SDS011;36308;46.312;25.288;2022-12-01T00:28:37;13.55;;;7.03;;
50393;SDS011;36308;46.312;25.288;2022-12-01T00:31:10;11.27;;;6.28;;
50393;SDS011;36308;46.312;25.288;2022-12-01T00:33:37;11.20;;;6.65;;
50393;SDS011;36308;46.312;25.288;2022-12-01T00:36:03;14.38;;;6.95;;
50393;SDS011;36308;46.312;25.288;2022-12-01T00:38:30;14.88;;;7.05;;
50393;SDS011;36308;46.312;25.288;2022-12-01T00:40:56;13.50;;;6.97;;
50393;SDS011;36308;46.312;25.288;2022-12-01T00:43:21;12.40;;;6.85;;
50393;SDS011;36308;46.312;25.288;2022-12-01T00:45:48;15.32;;;8.07;;
50393;SDS011;36308;46.312;25.288;2022-12-01T00:48:14;15.02;;;8.07;;
50393;SDS011;36308;46.312;25.288;2022-12-01T00:50:39;18.00;;;9.38;;
50393;SDS011;36308;46.312;25.288;2022-12-01T00:53:05;17.13;;;9.48;;
50393;SDS011;36308;46.312;25.288;2022-12-01T00:55:30;13.40;;;8.07;;
50393;SDS011;36308;46.312;25.288;2022-12-01T00:57:55;13.90;;;7.25;;
50393;SDS011;36308;46.312;25.288;2022-12-01T01:00:21;13.70;;;7.32;;
50393;SDS011;36308;46.312;25.288;2022-12-01T01:02:46;12.35;;;6.82;;
50393;SDS011;36308;46.312;25.288;2022-12-01T01:05:12;12.38;;;6.72;;
50393;SDS011;36308;46.312;25.288;2022-12-01T01:07:37;11.68;;;7.20;;
50393;SDS011;36308;46.312;25.288;2022-12-01T01:10:03;14.15;;;8.65;;
50393;SDS011;36308;46.312;25.288;2022-12-01T01:12:28;15.55;;;8.18;;
50393;SDS011;36308;46.312;25.288;2022-12-01T01:14:54;15.95;;;8.40;;
50393;SDS011;36308;46.312;25.288;2022-12-01T01:17:19;16.55;;;8.43;;
50393;SDS011;36308;46.312;25.288;2022-12-01T01:19:45;13.15;;;7.40;;
50393;SDS011;36308;46.312;25.288;2022-12-01T01:22:10;13.77;;;7.40;;
50393;SDS011;36308;46.312;25.288;2022-12-01T01:24:36;11.65;;;6.55;;
50393;SDS011;36308;46.312;25.288;2022-12-01T01:27:02;14.45;;;7.75;;
50393;SDS011;36308;46.312;25.288;2022-12-01T01:29:27;21.75;;;10.85;;
50393;SDS011;36308;46.312;25.288;2022-12-01T01:31:53;24.08;;;12.07;;
50393;SDS011;36308;46.312;25.288;2022-12-01T01:34:18;19.63;;;9.77;;
50393;SDS011;36308;46.312;25.288;2022-12-01T01:36:43;16.88;;;8.85;;
50393;SDS011;36308;46.312;25.288;2022-12-01T01:39:09;15.63;;;8.10;;
50393;SDS011;36308;46.312;25.288;2022-12-01T01:41:34;13.27;;;7.55;;
50393;SDS011;36308;46.312;25.288;2022-12-01T01:44:00;13.95;;;7.32;;
50393;SDS011;36308;46.312;25.288;2022-12-01T01:46:28;13.95;;;7.65;;
50393;SDS011;36308;46.312;25.288;2022-12-01T01:48:56;17.63;;;8.55;;
50393;SDS011;36308;46.312;25.288;2022-12-01T01:54:36;17.73;;;8.63;;
50393;SDS011;36308;46.312;25.288;2022-12-01T01:56:59;22.70;;;11.02;;
50393;SDS011;36308;46.312;25.288;2022-12-01T01:59:27;20.30;;;10.98;;
50393;SDS011;36308;46.312;25.288;2022-12-01T02:02:01;21.63;;;10.35;;
50393;SDS011;36308;46.312;25.288;2022-12-01T02:04:30;29.10;;;15.13;;
50393;SDS011;36308;46.312;25.288;2022-12-01T02:06:58;34.42;;;15.00;;
50393;SDS011;36308;46.312;25.288;2022-12-01T02:09:24;28.05;;;14.13;;
50393;SDS011;36308;46.312;25.288;2022-12-01T02:23:41;16.33;;;9.10;;
50393;SDS011;36308;46.312;25.288;2022-12-01T02:39:32;17.65;;;9.52;;
50393;SDS011;36308;46.312;25.288;2022-12-01T02:42:10;18.40;;;10.35;;
50393;SDS011;36308;46.312;25.288;2022-12-01T02:45:04;16.30;;;9.73;;
50393;SDS011;36308;46.312;25.288;2022-12-01T02:47:36;16.15;;;8.50;;
50393;SDS011;36308;46.312;25.288;2022-12-01T02:50:04;10.90;;;5.78;;
50393;SDS011;36308;46.312;25.288;2022-12-01T02:52:32;12.00;;;6.07;;
50393;SDS011;36308;46.312;25.288;2022-12-01T02:54:58;10.70;;;5.93;;
50393;SDS011;36308;46.312;25.288;2022-12-01T02:57:24;21.08;;;10.60;;
50393;SDS011;36308;46.312;25.288;2022-12-01T02:59:51;22.50;;;15.02;;
50393;SDS011;36308;46.312;25.288;2022-12-01T03:02:36;19.92;;;10.98;;
50393;SDS011;36308;46.312;25.288;2022-12-01T03:07:58;16.03;;;8.60;;
50393;SDS011;36308;46.312;25.288;2022-12-01T03:10:41;15.18;;;8.27;;
50393;SDS011;36308;46.312;25.288;2022-12-01T03:23:44;14.48;;;8.10;;
50393;SDS011;36308;46.312;25.288;2022-12-01T03:26:17;17.70;;;9.85;;
50393;SDS011;36308;46.312;25.288;2022-12-01T03:28:46;17.80;;;9.70;;
50393;SDS011;36308;46.312;25.288;2022-12-01T03:31:17;19.23;;;8.95;;
50393;SDS011;36308;46.312;25.288;2022-12-01T03:33:51;16.05;;;9.15;;
50393;SDS011;36308;46.312;25.288;2022-12-01T03:36:36;20.58;;;10.40;;
50393;SDS011;36308;46.312;25.288;2022-12-01T03:39:07;16.73;;;8.93;;
50393;SDS011;36308;46.312;25.288;2022-12-01T03:44:37;18.50;;;10.05;;
50393;SDS011;36308;46.312;25.288;2022-12-01T03:47:09;19.45;;;10.70;;
50393;SDS011;36308;46.312;25.288;2022-12-01T03:49:38;22.05;;;10.95;;
50393;SDS011;36308;46.312;25.288;2022-12-01T03:57:30;29.20;;;13.00;;
50393;SDS011;36308;46.312;25.288;2022-12-01T04:00:02;26.45;;;13.13;;
50393;SDS011;36308;46.312;25.288;2022-12-01T04:02:28;24.75;;;12.32;;
50393;SDS011;36308;46.312;25.288;2022-12-01T04:04:54;23.85;;;12.73;;
50393;SDS011;36308;46.312;25.288;2022-12-01T04:07:20;29.55;;;15.48;;
50393;SDS011;36308;46.312;25.288;2022-12-01T04:09:47;27.30;;;13.57;;
50393;SDS011;36308;46.312;25.288;2022-12-01T04:12:13;22.48;;;11.57;;
50393;SDS011;36308;46.312;25.288;2022-12-01T04:14:57;28.70;;;12.85;;
50393;SDS011;36308;46.312;25.288;2022-12-01T04:17:24;35.03;;;17.98;;
50393;SDS011;36308;46.312;25.288;2022-12-01T04:19:50;37.58;;;18.95;;
50393;SDS011;36308;46.312;25.288;2022-12-01T04:22:15;42.90;;;17.83;;
50393;SDS011;36308;46.312;25.288;2022-12-01T04:24:40;34.92;;;16.67;;
50393;SDS011;36308;46.312;25.288;2022-12-01T04:27:06;36.60;;;16.40;;
50393;SDS011;36308;46.312;25.288;2022-12-01T04:29:31;29.50;;;15.07;;
50393;SDS011;36308;46.312;25.288;2022-12-01T04:31:57;23.75;;;13.23;;
50393;SDS011;36308;46.312;25.288;2022-12-01T04:34:23;24.92;;;12.10;;
50393;SDS011;36308;46.312;25.288;2022-12-01T04:36:48;24.80;;;12.60;;
50393;SDS011;36308;46.312;25.288;2022-12-01T04:39:14;20.73;;;11.75;;
50393;SDS011;36308;46.312;25.288;2022-12-01T04:41:39;23.40;;;12.70;;
50393;SDS011;36308;46.312;25.288;2022-12-01T04:44:04;28.42;;;13.55;;
50393;SDS011;36308;46.312;25.288;2022-12-01T04:46:30;28.55;;;15.23;;
50393;SDS011;36308;46.312;25.288;2022-12-01T04:48:55;33.60;;;15.90;;
50393;SDS011;36308;46.312;25.288;2022-12-01T04:51:21;28.70;;;15.55;;
50393;SDS011;36308;46.312;25.288;2022-12-01T04:53:47;69.18;;;27.42;;
50393;SDS011;36308;46.312;25.288;2022-12-01T04:56:13;38.67;;;20.92;;
50393;SDS011;36308;46.312;25.288;2022-12-01T04:58:38;40.55;;;22.65;;
50393;SDS011;36308;46.312;25.288;2022-12-01T05:01:05;40.78;;;20.70;;
50393;SDS011;36308;46.312;25.288;2022-12-01T05:03:36;42.80;;;23.90;;
50393;SDS011;36308;46.312;25.288;2022-12-01T05:06:03;45.65;;;25.58;;
50393;SDS011;36308;46.312;25.288;2022-12-01T05:08:32;45.40;;;23.67;;
50393;SDS011;36308;46.312;25.288;2022-12-01T05:10:58;42.58;;;23.33;;
50393;SDS011;36308;46.312;25.288;2022-12-01T05:13:24;45.67;;;25.30;;
50393;SDS011;36308;46.312;25.288;2022-12-01T05:15:50;45.95;;;25.45;;
50393;SDS011;36308;46.312;25.288;2022-12-01T05:18:15;51.17;;;28.33;;
50393;SDS011;36308;46.312;25.288;2022-12-01T05:20:40;55.55;;;29.25;;
50393;SDS011;36308;46.312;25.288;2022-12-01T05:23:21;59.17;;;29.65;;
50393;SDS011;36308;46.312;25.288;2022-12-01T05:25:48;49.50;;;26.02;;
50393;SDS011;36308;46.312;25.288;2022-12-01T05:28:13;42.75;;;24.88;;
50393;SDS011;36308;46.312;25.288;2022-12-01T05:30:39;46.65;;;25.85;;
50393;SDS011;36308;46.312;25.288;2022-12-01T05:33:04;37.83;;;22.27;;
50393;SDS011;36308;46.312;25.288;2022-12-01T05:35:31;38.17;;;20.98;;
50393;SDS011;36308;46.312;25.288;2022-12-01T05:37:57;47.03;;;26.40;;
50393;SDS011;36308;46.312;25.288;2022-12-01T05:40:23;57.45;;;31.75;;
50393;SDS011;36308;46.312;25.288;2022-12-01T05:42:48;59.58;;;33.67;;
50393;SDS011;36308;46.312;25.288;2022-12-01T05:45:14;62.70;;;31.20;;
50393;SDS011;36308;46.312;25.288;2022-12-01T05:47:39;59.45;;;32.30;;
50393;SDS011;36308;46.312;25.288;2022-12-01T05:50:05;64.22;;;34.20;;
50393;SDS011;36308;46.312;25.288;2022-12-01T05:52:32;69.25;;;39.17;;
50393;SDS011;36308;46.312;25.288;2022-12-01T05:54:58;77.95;;;43.75;;
50393;SDS011;36308;46.312;25.288;2022-12-01T05:57:24;71.57;;;41.83;;
50393;SDS011;36308;46.312;25.288;2022-12-01T05:59:49;79.43;;;45.85;;
50393;SDS011;36308;46.312;25.288;2022-12-01T06:02:15;65.43;;;35.03;;
50393;SDS011;36308;46.312;25.288;2022-12-01T06:04:40;67.70;;;39.50;;
50393;SDS011;36308;46.312;25.288;2022-12-01T06:07:05;75.05;;;41.55;;
50393;SDS011;36308;46.312;25.288;2022-12-01T06:09:31;77.30;;;45.45;;
50393;SDS011;36308;46.312;25.288;2022-12-01T06:11:56;80.38;;;42.63;;
50393;SDS011;36308;46.312;25.288;2022-12-01T06:14:21;73.20;;;41.78;;
50393;SDS011;36308;46.312;25.288;2022-12-01T06:16:47;83.20;;;42.85;;
50393;SDS011;36308;46.312;25.288;2022-12-01T06:19:12;93.88;;;46.40;;
50393;SDS011;36308;46.312;25.288;2022-12-01T06:21:38;91.13;;;48.33;;
50393;SDS011;36308;46.312;25.288;2022-12-01T06:24:03;95.03;;;51.70;;
50393;SDS011;36308;46.312;25.288;2022-12-01T06:26:29;92.63;;;50.53;;
50393;SDS011;36308;46.312;25.288;2022-12-01T06:28:55;89.68;;;49.45;;
50393;SDS011;36308;46.312;25.288;2022-12-01T06:31:20;109.70;;;56.90;;
50393;SDS011;36308;46.312;25.288;2022-12-01T06:33:45;107.97;;;57.22;;
50393;SDS011;36308;46.312;25.288;2022-12-01T06:36:11;106.35;;;58.35;;
50393;SDS011;36308;46.312;25.288;2022-12-01T06:38:36;122.82;;;60.20;;
50393;SDS011;36308;46.312;25.288;2022-12-01T06:41:02;121.38;;;64.80;;
50393;SDS011;36308;46.312;25.288;2022-12-01T06:43:28;112.45;;;60.00;;
50393;SDS011;36308;46.312;25.288;2022-12-01T06:45:54;105.68;;;57.88;;
50393;SDS011;36308;46.312;25.288;2022-12-01T06:48:20;110.90;;;58.38;;
50393;SDS011;36308;46.312;25.288;2022-12-01T06:50:45;116.50;;;62.60;;
50393;SDS011;36308;46.312;25.288;2022-12-01T06:53:10;115.00;;;61.45;;
50393;SDS011;36308;46.312;25.288;2022-12-01T06:55:36;124.38;;;68.30;;
50393;SDS011;36308;46.312;25.288;2022-12-01T06:58:03;124.93;;;67.82;;
50393;SDS011;36308;46.312;25.288;2022-12-01T07:00:29;118.50;;;70.82;;
50393;SDS011;36308;46.312;25.288;2022-12-01T07:02:54;104.72;;;57.53;;
50393;SDS011;36308;46.312;25.288;2022-12-01T07:05:20;99.72;;;51.95;;
50393;SDS011;36308;46.312;25.288;2022-12-01T07:07:45;596.05;;;104.15;;
50393;SDS011;36308;46.312;25.288;2022-12-01T07:10:11;104.60;;;47.28;;
50393;SDS011;36308;46.312;25.288;2022-12-01T07:12:37;99.78;;;52.38;;
50393;SDS011;36308;46.312;25.288;2022-12-01T07:15:04;114.03;;;57.83;;
50393;SDS011;36308;46.312;25.288;2022-12-01T07:17:32;133.07;;;62.80;;
50393;SDS011;36308;46.312;25.288;2022-12-01T07:19:58;137.20;;;68.70;;
50393;SDS011;36308;46.312;25.288;2022-12-01T07:22:24;129.35;;;68.18;;
50393;SDS011;36308;46.312;25.288;2022-12-01T07:24:52;137.05;;;74.22;;
50393;SDS011;36308;46.312;25.288;2022-12-01T07:27:17;138.75;;;76.07;;
50393;SDS011;36308;46.312;25.288;2022-12-01T07:29:43;145.70;;;82.32;;
50393;SDS011;36308;46.312;25.288;2022-12-01T07:32:08;133.40;;;74.35;;
50393;SDS011;36308;46.312;25.288;2022-12-01T07:34:33;112.60;;;55.38;;
50393;SDS011;36308;46.312;25.288;2022-12-01T07:36:59;229.60;;;61.00;;
50393;SDS011;36308;46.312;25.288;2022-12-01T07:39:24;76.47;;;38.65;;
50393;SDS011;36308;46.312;25.288;2022-12-01T07:41:50;73.85;;;40.80;;
50393;SDS011;36308;46.312;25.288;2022-12-01T07:44:15;59.28;;;33.28;;
50393;SDS011;36308;46.312;25.288;2022-12-01T07:46:41;57.00;;;35.13;;
50393;SDS011;36308;46.312;25.288;2022-12-01T07:49:07;64.20;;;36.58;;
50393;SDS011;36308;46.312;25.288;2022-12-01T07:51:34;75.97;;;39.65;;
50393;SDS011;36308;46.312;25.288;2022-12-01T07:54:03;41.45;;;24.58;;
50393;SDS011;36308;46.312;25.288;2022-12-01T07:56:30;44.17;;;25.42;;
50393;SDS011;36308;46.312;25.288;2022-12-01T07:58:55;40.97;;;23.13;;
50393;SDS011;36308;46.312;25.288;2022-12-01T08:01:21;46.75;;;22.00;;
50393;SDS011;36308;46.312;25.288;2022-12-01T08:03:49;41.53;;;23.15;;
50393;SDS011;36308;46.312;25.288;2022-12-01T08:06:19;44.97;;;25.95;;
50393;SDS011;36308;46.312;25.288;2022-12-01T08:08:45;53.80;;;32.45;;
50393;SDS011;36308;46.312;25.288;2022-12-01T08:11:16;75.13;;;39.40;;
50393;SDS011;36308;46.312;25.288;2022-12-01T08:13:49;84.65;;;48.30;;
50393;SDS011;36308;46.312;25.288;2022-12-01T08:16:16;75.70;;;39.92;;
50393;SDS011;36308;46.312;25.288;2022-12-01T08:18:42;34.40;;;20.52;;
50393;SDS011;36308;46.312;25.288;2022-12-01T08:21:09;51.70;;;30.50;;
50393;SDS011;36308;46.312;25.288;2022-12-01T08:23:38;78.38;;;43.17;;
50393;SDS011;36308;46.312;25.288;2022-12-01T08:26:04;86.80;;;48.53;;
50393;SDS011;36308;46.312;25.288;2022-12-01T08:28:31;72.30;;;41.10;;
50393;SDS011;36308;46.312;25.288;2022-12-01T08:31:05;87.22;;;44.13;;
50393;SDS011;36308;46.312;25.288;2022-12-01T08:33:45;102.63;;;58.58;;
50393;SDS011;36308;46.312;25.288;2022-12-01T08:36:11;52.50;;;31.63;;
50393;SDS011;36308;46.312;25.288;2022-12-01T08:38:37;43.53;;;25.45;;
50393;SDS011;36308;46.312;25.288;2022-12-01T08:41:03;43.72;;;24.05;;
50393;SDS011;36308;46.312;25.288;2022-12-01T08:43:30;40.83;;;22.35;;
50393;SDS011;36308;46.312;25.288;2022-12-01T08:45:56;27.05;;;15.90;;
50393;SDS011;36308;46.312;25.288;2022-12-01T08:48:25;28.30;;;15.02;;
50393;SDS011;36308;46.312;25.288;2022-12-01T08:51:00;30.15;;;18.20;;
50393;SDS011;36308;46.312;25.288;2022-12-01T08:53:29;29.40;;;15.57;;
50393;SDS011;36308;46.312;25.288;2022-12-01T08:55:58;25.90;;;15.75;;
50393;SDS011;36308;46.312;25.288;2022-12-01T08:58:25;36.33;;;22.75;;
50393;SDS011;36308;46.312;25.288;2022-12-01T09:00:50;43.28;;;25.38;;
50393;SDS011;36308;46.312;25.288;2022-12-01T09:03:16;49.38;;;26.55;;
50393;SDS011;36308;46.312;25.288;2022-12-01T09:05:41;56.33;;;31.73;;
50393;SDS011;36308;46.312;25.288;2022-12-01T09:08:07;118.93;;;43.92;;
50393;SDS011;36308;46.312;25.288;2022-12-01T09:10:51;64.07;;;33.80;;
50393;SDS011;36308;46.312;25.288;2022-12-01T09:13:17;53.65;;;32.00;;
50393;SDS011;36308;46.312;25.288;2022-12-01T09:15:42;30.15;;;19.13;;
50393;SDS011;36308;46.312;25.288;2022-12-01T09:18:08;38.90;;;23.92;;
50393;SDS011;36308;46.312;25.288;2022-12-01T09:20:33;43.22;;;25.80;;
50393;SDS011;36308;46.312;25.288;2022-12-01T09:22:58;46.72;;;25.00;;
50393;SDS011;36308;46.312;25.288;2022-12-01T09:25:24;48.65;;;31.98;;
50393;SDS011;36308;46.312;25.288;2022-12-01T09:27:49;48.10;;;28.70;;
50393;SDS011;36308;46.312;25.288;2022-12-01T09:30:15;52.78;;;32.08;;
50393;SDS011;36308;46.312;25.288;2022-12-01T09:32:41;67.47;;;37.03;;
50393;SDS011;36308;46.312;25.288;2022-12-01T09:35:06;49.75;;;29.65;;
50393;SDS011;36308;46.312;25.288;2022-12-01T09:37:32;38.78;;;23.50;;
50393;SDS011;36308;46.312;25.288;2022-12-01T09:39:59;39.63;;;23.58;;
50393;SDS011;36308;46.312;25.288;2022-12-01T09:42:24;38.65;;;22.30;;
50393;SDS011;36308;46.312;25.288;2022-12-01T09:44:54;33.15;;;19.63;;
50393;SDS011;36308;46.312;25.288;2022-12-01T09:47:29;35.63;;;20.40;;
50393;SDS011;36308;46.312;25.288;2022-12-01T09:49:58;30.67;;;18.30;;
50393;SDS011;36308;46.312;25.288;2022-12-01T09:52:33;39.75;;;21.98;;
50393;SDS011;36308;46.312;25.288;2022-12-01T09:55:13;37.25;;;19.42;;
50393;SDS011;36308;46.312;25.288;2022-12-01T09:57:40;38.50;;;21.55;;
50393;SDS011;36308;46.312;25.288;2022-12-01T10:00:11;27.35;;;17.20;;
50393;SDS011;36308;46.312;25.288;2022-12-01T10:05:20;30.92;;;15.88;;
50393;SDS011;36308;46.312;25.288;2022-12-01T10:07:51;25.02;;;15.70;;
50393;SDS011;36308;46.312;25.288;2022-12-01T10:12:47;52.30;;;25.07;;
50393;SDS011;36308;46.312;25.288;2022-12-01T10:34:44;30.38;;;18.02;;
50393;SDS011;36308;46.312;25.288;2022-12-01T10:37:21;62.25;;;29.80;;
50393;SDS011;36308;46.312;25.288;2022-12-01T10:39:50;20.63;;;12.63;;
50393;SDS011;36308;46.312;25.288;2022-12-01T10:44:43;19.75;;;11.90;;
50393;SDS011;36308;46.312;25.288;2022-12-01T10:47:17;23.75;;;12.93;;
50393;SDS011;36308;46.312;25.288;2022-12-01T10:49:45;22.85;;;13.15;;
50393;SDS011;36308;46.312;25.288;2022-12-01T10:54:59;44.15;;;23.83;;
50393;SDS011;36308;46.312;25.288;2022-12-01T10:57:26;17.95;;;9.07;;
50393;SDS011;36308;46.312;25.288;2022-12-01T11:00:04;21.67;;;11.10;;
50393;SDS011;36308;46.312;25.288;2022-12-01T11:02:32;20.83;;;12.38;;
50393;SDS011;36308;46.312;25.288;2022-12-01T11:05:06;19.70;;;12.65;;
50393;SDS011;36308;46.312;25.288;2022-12-01T11:07:45;18.02;;;9.02;;
50393;SDS011;36308;46.312;25.288;2022-12-01T11:10:18;29.67;;;16.55;;
50393;SDS011;36308;46.312;25.288;2022-12-01T11:13:04;48.53;;;25.70;;
50393;SDS011;36308;46.312;25.288;2022-12-01T11:15:40;24.08;;;13.48;;
50393;SDS011;36308;46.312;25.288;2022-12-01T11:23:36;18.95;;;11.55;;
50393;SDS011;36308;46.312;25.288;2022-12-01T11:28:58;29.33;;;16.33;;
50393;SDS011;36308;46.312;25.288;2022-12-01T11:34:00;20.90;;;10.55;;
50393;SDS011;36308;46.312;25.288;2022-12-01T11:36:34;19.92;;;10.75;;
50393;SDS011;36308;46.312;25.288;2022-12-01T11:39:02;19.40;;;8.98;;
50393;SDS011;36308;46.312;25.288;2022-12-01T11:41:35;17.27;;;8.85;;
50393;SDS011;36308;46.312;25.288;2022-12-01T11:44:03;13.57;;;7.00;;
50393;SDS011;36308;46.312;25.288;2022-12-01T11:46:38;15.02;;;8.30;;
50393;SDS011;36308;46.312;25.288;2022-12-01T11:49:05;18.15;;;8.77;;
50393;SDS011;36308;46.312;25.288;2022-12-01T11:51:40;15.60;;;7.32;;
50393;SDS011;36308;46.312;25.288;2022-12-01T11:56:49;17.17;;;8.30;;
50393;SDS011;36308;46.312;25.288;2022-12-01T11:59:17;10.93;;;5.93;;
50393;SDS011;36308;46.312;25.288;2022-12-01T12:07:52;13.15;;;7.15;;
50393;SDS011;36308;46.312;25.288;2022-12-01T12:10:24;16.15;;;7.22;;
50393;SDS011;36308;46.312;25.288;2022-12-01T12:18:25;19.63;;;9.55;;
50393;SDS011;36308;46.312;25.288;2022-12-01T12:26:33;106.53;;;70.15;;
50393;SDS011;36308;46.312;25.288;2022-12-01T12:34:33;15.93;;;9.48;;
50393;SDS011;36308;46.312;25.288;2022-12-01T12:37:24;30.70;;;15.93;;
50393;SDS011;36308;46.312;25.288;2022-12-01T12:52:55;31.05;;;12.95;;
50393;SDS011;36308;46.312;25.288;2022-12-01T12:57:56;22.40;;;10.90;;
50393;SDS011;36308;46.312;25.288;2022-12-01T13:00:25;15.50;;;9.57;;
50393;SDS011;36308;46.312;25.288;2022-12-01T13:03:01;16.40;;;8.70;;
50393;SDS011;36308;46.312;25.288;2022-12-01T13:05:53;13.90;;;8.48;;
50393;SDS011;36308;46.312;25.288;2022-12-01T13:08:39;13.23;;;7.93;;
50393;SDS011;36308;46.312;25.288;2022-12-01T13:14:35;11.70;;;6.70;;
50393;SDS011;36308;46.312;25.288;2022-12-01T13:19:55;15.77;;;8.93;;
50393;SDS011;36308;46.312;25.288;2022-12-01T13:22:20;70.00;;;37.50;;
50393;SDS011;36308;46.312;25.288;2022-12-01T13:24:53;28.95;;;16.13;;
50393;SDS011;36308;46.312;25.288;2022-12-01T13:27:19;20.95;;;11.32;;
50393;SDS011;36308;46.312;25.288;2022-12-01T13:29:51;57.20;;;35.92;;
50393;SDS011;36308;46.312;25.288;2022-12-01T13:32:37;30.90;;;20.85;;
50393;SDS011;36308;46.312;25.288;2022-12-01T13:35:06;16.40;;;10.60;;
50393;SDS011;36308;46.312;25.288;2022-12-01T13:38:10;20.48;;;12.93;;
50393;SDS011;36308;46.312;25.288;2022-12-01T13:40:45;16.00;;;10.13;;
50393;SDS011;36308;46.312;25.288;2022-12-01T13:43:18;16.85;;;10.70;;
50393;SDS011;36308;46.312;25.288;2022-12-01T13:45:45;15.98;;;10.10;;
50393;SDS011;36308;46.312;25.288;2022-12-01T13:48:27;18.42;;;11.65;;
50393;SDS011;36308;46.312;25.288;2022-12-01T13:51:02;27.48;;;13.82;;
50393;SDS011;36308;46.312;25.288;2022-12-01T13:53:35;29.48;;;16.63;;
50393;SDS011;36308;46.312;25.288;2022-12-01T14:08:59;17.92;;;12.63;;
50393;SDS011;36308;46.312;25.288;2022-12-01T14:11:28;19.58;;;12.27;;
50393;SDS011;36308;46.312;25.288;2022-12-01T14:13:58;18.75;;;11.65;;
50393;SDS011;36308;46.312;25.288;2022-12-01T14:22:03;22.90;;;16.25;;
50393;SDS011;36308;46.312;25.288;2022-12-01T14:24:34;25.95;;;16.92;;
50393;SDS011;36308;46.312;25.288;2022-12-01T14:27:14;25.75;;;18.02;;
50393;SDS011;36308;46.312;25.288;2022-12-01T14:36:51;45.90;;;21.17;;
50393;SDS011;36308;46.312;25.288;2022-12-01T14:41:40;51.40;;;24.98;;
50393;SDS011;36308;46.312;25.288;2022-12-01T14:49:49;26.17;;;16.17;;
50393;SDS011;36308;46.312;25.288;2022-12-01T14:54:54;49.65;;;29.55;;
50393;SDS011;36308;46.312;25.288;2022-12-01T14:57:23;38.38;;;23.25;;
50393;SDS011;36308;46.312;25.288;2022-12-01T15:00:02;56.65;;;28.83;;
50393;SDS011;36308;46.312;25.288;2022-12-01T15:02:28;256.13;;;48.30;;
50393;SDS011;36308;46.312;25.288;2022-12-01T15:07:54;28.77;;;17.23;;
50393;SDS011;36308;46.312;25.288;2022-12-01T15:10:24;24.90;;;16.13;;
50393;SDS011;36308;46.312;25.288;2022-12-01T15:12:52;25.38;;;16.20;;
50393;SDS011;36308;46.312;25.288;2022-12-01T15:15:19;21.35;;;13.23;;
50393;SDS011;36308;46.312;25.288;2022-12-01T15:17:47;26.67;;;17.05;;
50393;SDS011;36308;46.312;25.288;2022-12-01T15:22:51;21.42;;;13.02;;
50393;SDS011;36308;46.312;25.288;2022-12-01T15:25:18;18.52;;;11.70;;
50393;SDS011;36308;46.312;25.288;2022-12-01T15:27:44;20.15;;;13.02;;
50393;SDS011;36308;46.312;25.288;2022-12-01T15:30:14;21.65;;;13.35;;
50393;SDS011;36308;46.312;25.288;2022-12-01T15:32:40;28.85;;;19.10;;
50393;SDS011;36308;46.312;25.288;2022-12-01T15:35:19;37.88;;;23.48;;
50393;SDS011;36308;46.312;25.288;2022-12-01T15:37:46;37.70;;;22.52;;
50393;SDS011;36308;46.312;25.288;2022-12-01T15:40:15;34.80;;;21.33;;
50393;SDS011;36308;46.312;25.288;2022-12-01T15:42:42;44.40;;;23.83;;
50393;SDS011;36308;46.312;25.288;2022-12-01T15:45:18;40.75;;;23.80;;
50393;SDS011;36308;46.312;25.288;2022-12-01T15:47:49;32.28;;;19.33;;
50393;SDS011;36308;46.312;25.288;2022-12-01T15:53:03;37.85;;;24.88;;
50393;SDS011;36308;46.312;25.288;2022-12-01T15:55:35;36.88;;;24.52;;
50393;SDS011;36308;46.312;25.288;2022-12-01T15:58:05;44.72;;;27.88;;
50393;SDS011;36308;46.312;25.288;2022-12-01T16:00:32;45.67;;;28.90;;
50393;SDS011;36308;46.312;25.288;2022-12-01T16:02:58;37.08;;;24.80;;
50393;SDS011;36308;46.312;25.288;2022-12-01T16:05:28;35.90;;;23.33;;
50393;SDS011;36308;46.312;25.288;2022-12-01T16:07:56;37.85;;;24.05;;
50393;SDS011;36308;46.312;25.288;2022-12-01T16:10:24;42.90;;;25.65;;
50393;SDS011;36308;46.312;25.288;2022-12-01T16:15:59;88.60;;;45.67;;
50393;SDS011;36308;46.312;25.288;2022-12-01T16:18:31;104.47;;;49.08;;
50393;SDS011;36308;46.312;25.288;2022-12-01T16:21:02;77.72;;;39.45;;
50393;SDS011;36308;46.312;25.288;2022-12-01T16:23:29;62.85;;;35.13;;
50393;SDS011;36308;46.312;25.288;2022-12-01T16:25:55;117.95;;;53.65;;
50393;SDS011;36308;46.312;25.288;2022-12-01T16:28:22;144.18;;;61.60;;
50393;SDS011;36308;46.312;25.288;2022-12-01T16:30:49;190.05;;;78.28;;
50393;SDS011;36308;46.312;25.288;2022-12-01T16:33:17;151.65;;;68.55;;
50393;SDS011;36308;46.312;25.288;2022-12-01T16:35:46;119.25;;;55.53;;
50393;SDS011;36308;46.312;25.288;2022-12-01T16:38:15;69.85;;;38.42;;
50393;SDS011;36308;46.312;25.288;2022-12-01T16:40:45;69.82;;;40.10;;
50393;SDS011;36308;46.312;25.288;2022-12-01T16:43:13;72.40;;;41.95;;
50393;SDS011;36308;46.312;25.288;2022-12-01T16:45:39;98.85;;;50.00;;
50393;SDS011;36308;46.312;25.288;2022-12-01T16:48:05;113.30;;;61.25;;
50393;SDS011;36308;46.312;25.288;2022-12-01T16:50:30;121.15;;;70.70;;
50393;SDS011;36308;46.312;25.288;2022-12-01T16:52:56;122.70;;;69.63;;
50393;SDS011;36308;46.312;25.288;2022-12-01T16:55:23;125.28;;;67.65;;
50393;SDS011;36308;46.312;25.288;2022-12-01T16:58:05;137.52;;;71.60;;
50393;SDS011;36308;46.312;25.288;2022-12-01T17:00:30;102.78;;;61.75;;
50393;SDS011;36308;46.312;25.288;2022-12-01T17:02:56;94.88;;;56.47;;
50393;SDS011;36308;46.312;25.288;2022-12-01T17:05:23;89.88;;;55.85;;
50393;SDS011;36308;46.312;25.288;2022-12-01T17:07:48;90.57;;;58.78;;
50393;SDS011;36308;46.312;25.288;2022-12-01T17:10:14;85.85;;;54.35;;
50393;SDS011;36308;46.312;25.288;2022-12-01T17:12:40;86.85;;;53.60;;
50393;SDS011;36308;46.312;25.288;2022-12-01T17:15:06;106.43;;;61.50;;
50393;SDS011;36308;46.312;25.288;2022-12-01T17:17:32;104.72;;;60.15;;
50393;SDS011;36308;46.312;25.288;2022-12-01T17:19:57;103.30;;;58.50;;
50393;SDS011;36308;46.312;25.288;2022-12-01T17:22:23;105.03;;;59.20;;
50393;SDS011;36308;46.312;25.288;2022-12-01T17:24:48;99.82;;;59.50;;